Time;durP1;ratioP1;P1;durP2;ratioP2;P2;SDS_P1;SDS_P2;PMS_P1;PMS_P2;Temp;Humidity;BMP_temperature;BMP_pressure;BME280_temperature;BME280_humidity;BME280_pressure;Samples;Min_cycle;Max_cycle;Signal;HPM_P1;HPM_P2
2022/07/17 00:03:53;;;;;;;5.32;1.67;;;11.20;99.90;;;;;;7362346;32;20214;-62
2022/07/17 00:07:56;;;;;;;4.35;1.40;;;11.10;99.90;;;;;;7361864;32;20107;-61
2022/07/17 00:11:57;;;;;;;4.12;1.60;;;11.00;99.90;;;;;;7361666;32;20194;-61
2022/07/17 00:15:59;;;;;;;3.70;1.77;;;10.90;99.90;;;;;;7362436;32;20129;-61
2022/07/17 00:20:01;;;;;;;8.00;2.08;;;10.90;99.90;;;;;;7361498;32;20233;-61
2022/07/17 00:24:06;;;;;;;5.65;1.95;;;10.80;99.90;;;;;;7362278;32;20156;-62
2022/07/17 00:28:07;;;;;;;5.47;2.20;;;10.70;99.90;;;;;;7360755;32;20202;-62
2022/07/17 00:32:09;;;;;;;3.33;1.73;;;10.70;99.90;;;;;;7361466;32;20190;-61
2022/07/17 00:36:11;;;;;;;6.68;1.90;;;10.60;99.90;;;;;;7361534;32;20269;-61
2022/07/17 00:40:20;;;;;;;4.47;1.58;;;10.60;99.90;;;;;;7360760;32;20175;-62
2022/07/17 00:44:26;;;;;;;7.60;2.10;;;10.60;99.90;;;;;;7360976;32;20108;-61
2022/07/17 00:48:28;;;;;;;6.28;1.80;;;10.50;99.90;;;;;;7360909;32;20266;-62
2022/07/17 00:52:30;;;;;;;4.53;1.80;;;10.50;99.90;;;;;;7361319;32;20167;-61
2022/07/17 00:56:32;;;;;;;5.53;2.00;;;10.50;99.90;;;;;;7356432;32;20186;-62
2022/07/17 01:00:34;;;;;;;6.05;1.48;;;10.40;99.90;;;;;;7345144;32;20122;-61
2022/07/17 01:04:37;;;;;;;5.75;2.40;;;10.40;99.90;;;;;;7361174;32;20100;-61
2022/07/17 01:08:39;;;;;;;6.68;1.92;;;10.30;99.90;;;;;;7360059;32;20187;-62
2022/07/17 01:12:40;;;;;;;5.35;1.90;;;10.20;99.90;;;;;;7361068;32;20107;-61
2022/07/17 01:16:43;;;;;;;6.90;2.00;;;10.20;99.90;;;;;;7360621;32;20111;-62
2022/07/17 01:20:47;;;;;;;3.08;1.90;;;10.10;99.90;;;;;;7360223;32;20129;-61
2022/07/17 01:24:49;;;;;;;4.97;2.10;;;10.10;99.90;;;;;;7360751;32;20107;-62
2022/07/17 01:28:51;;;;;;;6.18;1.80;;;10.10;99.90;;;;;;7359993;32;20135;-61
2022/07/17 01:32:53;;;;;;;6.20;1.80;;;10.00;99.90;;;;;;7360586;32;20179;-63
2022/07/17 01:36:55;;;;;;;3.40;1.70;;;10.00;99.90;;;;;;7360404;32;20125;-61
2022/07/17 01:40:56;;;;;;;4.30;1.75;;;10.00;99.90;;;;;;7359443;32;20580;-62
2022/07/17 01:44:59;;;;;;;4.80;1.80;;;9.90;99.90;;;;;;7359517;32;20210;-63
2022/07/17 01:49:01;;;;;;;3.85;1.50;;;9.90;99.90;;;;;;7359411;32;20638;-61
2022/07/17 01:53:03;;;;;;;4.35;1.83;;;9.90;99.90;;;;;;7359346;32;20227;-61
2022/07/17 01:57:05;;;;;;;5.95;1.60;;;9.90;99.90;;;;;;7342466;32;20144;-61
2022/07/17 02:01:06;;;;;;;3.50;1.60;;;9.80;99.90;;;;;;7358622;32;20502;-61
2022/07/17 02:05:08;;;;;;;6.00;1.70;;;9.80;99.90;;;;;;7360156;32;20777;-61
2022/07/17 02:09:10;;;;;;;3.95;1.67;;;9.80;99.90;;;;;;7358273;32;20103;-62
2022/07/17 02:13:13;;;;;;;5.30;1.50;;;9.70;99.90;;;;;;7359506;32;20194;-62
2022/07/17 02:17:15;;;;;;;4.30;1.55;;;9.70;99.90;;;;;;7359200;32;20099;-62
2022/07/17 02:21:17;;;;;;;5.20;1.62;;;9.70;99.90;;;;;;7358168;32;20576;-61
2022/07/17 02:25:19;;;;;;;4.03;1.52;;;9.60;99.90;;;;;;7358791;32;20181;-61
2022/07/17 02:29:20;;;;;;;4.93;1.55;;;9.60;99.90;;;;;;7358370;32;20099;-61
2022/07/17 02:33:22;;;;;;;4.05;1.70;;;9.60;99.90;;;;;;7359164;32;20107;-61
2022/07/17 02:37:24;;;;;;;4.25;1.77;;;9.60;99.90;;;;;;7359086;32;20186;-61
2022/07/17 02:41:26;;;;;;;4.95;1.92;;;9.50;99.90;;;;;;7337343;32;20196;-61
2022/07/17 02:45:28;;;;;;;5.03;1.58;;;9.50;99.90;;;;;;7332956;32;20107;-62
2022/07/17 02:49:29;;;;;;;2.87;1.23;;;9.50;99.90;;;;;;7332325;32;20099;-61
2022/07/17 02:53:31;;;;;;;4.45;1.83;;;9.40;99.90;;;;;;7333713;32;20121;-62
2022/07/17 02:57:33;;;;;;;3.05;1.52;;;9.40;99.90;;;;;;7346462;32;20370;-62
2022/07/17 03:01:35;;;;;;;3.15;1.30;;;9.40;99.90;;;;;;7332699;32;20178;-61
2022/07/17 03:05:37;;;;;;;5.07;1.55;;;9.30;99.90;;;;;;7332749;32;20195;-61
2022/07/17 03:09:38;;;;;;;3.55;1.30;;;9.20;99.90;;;;;;7344888;32;20218;-61
2022/07/17 03:13:40;;;;;;;3.45;1.40;;;9.20;99.90;;;;;;7357914;32;20688;-61
2022/07/17 03:17:42;;;;;;;3.90;1.52;;;9.20;99.90;;;;;;7357162;32;20123;-61
2022/07/17 03:21:44;;;;;;;4.10;1.33;;;9.20;99.90;;;;;;7357643;32;20158;-62
2022/07/17 03:25:46;;;;;;;3.75;1.30;;;9.10;99.90;;;;;;7358058;32;20174;-61
2022/07/17 03:29:47;;;;;;;5.43;1.23;;;9.10;99.90;;;;;;7357669;32;20186;-61
2022/07/17 03:33:49;;;;;;;6.85;1.50;;;9.10;99.90;;;;;;7358492;32;20189;-63
2022/07/17 03:37:51;;;;;;;4.07;1.40;;;9.10;99.90;;;;;;7357087;32;20225;-61
2022/07/17 03:41:53;;;;;;;2.90;1.15;;;9.10;99.90;;;;;;7358066;32;20131;-61
2022/07/17 03:45:54;;;;;;;4.87;1.55;;;9.10;99.90;;;;;;7357575;32;20397;-62
2022/07/17 03:49:56;;;;;;;3.58;1.27;;;9.10;99.90;;;;;;7355999;32;20138;-61
2022/07/17 03:53:58;;;;;;;4.22;1.37;;;9.10;99.90;;;;;;7350702;32;20108;-61
2022/07/17 03:58:00;;;;;;;5.95;1.62;;;9.10;99.90;;;;;;7331374;32;20112;-61
2022/07/17 04:02:02;;;;;;;6.32;1.65;;;9.00;99.90;;;;;;7332108;32;20105;-63
2022/07/17 04:06:04;;;;;;;2.97;1.27;;;9.00;99.90;;;;;;7344324;32;20130;-61
2022/07/17 04:10:06;;;;;;;6.12;1.80;;;9.00;99.90;;;;;;7356662;32;20179;-62
2022/07/17 04:14:08;;;;;;;5.87;1.62;;;9.10;99.90;;;;;;7357812;32;20125;-62
2022/07/17 04:18:10;;;;;;;3.53;1.42;;;9.10;99.90;;;;;;7356666;32;20119;-61
2022/07/17 04:22:11;;;;;;;3.20;1.35;;;9.20;99.90;;;;;;7356648;32;20095;-62
2022/07/17 04:26:13;;;;;;;3.97;1.45;;;9.20;99.90;;;;;;7361170;32;20134;-61
2022/07/17 04:30:15;;;;;;;3.40;1.52;;;9.30;99.90;;;;;;7361352;32;20108;-61
2022/07/17 04:34:17;;;;;;;4.03;1.40;;;9.40;99.90;;;;;;7362181;32;20589;-61
2022/07/17 04:38:19;;;;;;;2.85;1.45;;;9.60;99.90;;;;;;7361019;32;20191;-61
2022/07/17 04:42:20;;;;;;;4.53;1.80;;;9.80;99.90;;;;;;7362251;32;20103;-61
2022/07/17 04:46:22;;;;;;;4.75;1.30;;;10.00;99.90;;;;;;7361426;32;20107;-61
2022/07/17 04:50:24;;;;;;;5.30;1.75;;;10.30;99.90;;;;;;7358463;32;20104;-61
2022/07/17 04:54:26;;;;;;;3.60;1.55;;;10.70;99.90;;;;;;7352204;32;20100;-61
2022/07/17 04:58:28;;;;;;;3.72;1.50;;;11.20;99.90;;;;;;7351945;32;20100;-61
2022/07/17 05:02:29;;;;;;;5.90;1.30;;;11.60;99.90;;;;;;7360703;32;20123;-61
2022/07/17 05:06:31;;;;;;;3.60;1.30;;;12.10;99.90;;;;;;7360677;32;20107;-63
2022/07/17 05:10:33;;;;;;;2.80;1.30;;;12.80;99.90;;;;;;7359794;32;20107;-62
2022/07/17 05:14:35;;;;;;;2.83;1.37;;;13.20;99.90;;;;;;7361144;32;20439;-61
2022/07/17 05:18:36;;;;;;;4.07;1.20;;;13.90;99.90;;;;;;7350422;32;20165;-62
2022/07/17 05:22:38;;;;;;;4.72;1.58;;;14.50;99.90;;;;;;7339700;32;20168;-62
2022/07/17 05:26:40;;;;;;;2.58;1.15;;;15.10;99.90;;;;;;7337654;32;20119;-61
2022/07/17 05:30:41;;;;;;;4.28;1.45;;;15.60;99.90;;;;;;7359514;32;20179;-62
2022/07/17 05:34:43;;;;;;;3.47;1.27;;;16.00;99.90;;;;;;7360089;32;20201;-62
2022/07/17 05:38:45;;;;;;;3.40;1.10;;;16.30;99.90;;;;;;7358534;32;20459;-62
2022/07/17 05:42:46;;;;;;;8.85;2.03;;;16.70;99.90;;;;;;7359419;32;20115;-62
2022/07/17 05:46:48;;;;;;;3.50;1.62;;;16.60;99.90;;;;;;7360008;32;20182;-62
2022/07/17 05:50:50;;;;;;;4.95;1.60;;;16.70;99.90;;;;;;7358224;32;20129;-62
2022/07/17 05:54:52;;;;;;;6.55;2.00;;;16.80;99.90;;;;;;7359279;32;20102;-62
2022/07/17 05:58:53;;;;;;;6.53;1.70;;;17.00;99.90;;;;;;7339133;32;20122;-62
2022/07/17 06:02:55;;;;;;;3.62;1.50;;;17.20;99.90;;;;;;7352103;32;20130;-61
2022/07/17 06:06:57;;;;;;;7.45;1.40;;;17.20;99.90;;;;;;7359902;32;20103;-61
2022/07/17 06:10:59;;;;;;;5.35;1.30;;;17.40;99.90;;;;;;7358268;32;20273;-61
2022/07/17 06:15:00;;;;;;;7.12;1.25;;;17.60;99.90;;;;;;7359332;32;20495;-60
2022/07/17 06:19:02;;;;;;;4.18;1.05;;;17.90;99.90;;;;;;7358899;32;20119;-61
2022/07/17 06:23:04;;;;;;;4.22;1.27;;;18.70;99.90;;;;;;7358324;32;20182;-60
2022/07/17 06:27:06;;;;;;;5.03;1.10;;;19.40;99.90;;;;;;7358916;32;20198;-61
2022/07/17 06:31:07;;;;;;;5.47;1.33;;;20.30;99.90;;;;;;7357632;32;20115;-64
2022/07/17 06:35:10;;;;;;;6.70;1.10;;;20.90;99.90;;;;;;7357907;32;20190;-64
2022/07/17 06:39:12;;;;;;;4.20;1.20;;;21.80;99.90;;;;;;7357522;32;20108;-63
2022/07/17 06:43:13;;;;;;;3.33;1.27;;;22.60;99.90;;;;;;7358417;32;20178;-63
2022/07/17 06:47:15;;;;;;;3.47;1.05;;;22.70;99.90;;;;;;7358386;32;20123;-63
2022/07/17 06:51:17;;;;;;;4.53;1.12;;;23.30;99.90;;;;;;7356886;32;20111;-63
2022/07/17 06:55:19;;;;;;;4.60;1.05;;;23.80;99.90;;;;;;7358177;32;20311;-63
2022/07/17 06:59:21;;;;;;;2.05;0.77;;;23.80;99.90;;;;;;7334435;32;20557;-62
2022/07/17 07:03:23;;;;;;;7.93;1.35;;;24.40;99.90;;;;;;7339636;32;20131;-63
2022/07/17 07:07:24;;;;;;;5.65;1.12;;;24.80;98.40;;;;;;7357382;32;20115;-63
2022/07/17 07:11:26;;;;;;;4.68;0.80;;;24.90;94.00;;;;;;7357646;32;20198;-63
2022/07/17 07:15:28;;;;;;;4.78;1.15;;;24.50;94.80;;;;;;7357629;32;20136;-63
2022/07/17 07:19:30;;;;;;;3.20;0.90;;;24.10;91.70;;;;;;7356526;32;20119;-63
2022/07/17 07:23:32;;;;;;;5.50;1.00;;;23.70;91.80;;;;;;7357088;32;20527;-63
2022/07/17 07:27:34;;;;;;;3.97;1.15;;;23.60;91.70;;;;;;7356396;32;20174;-63
2022/07/17 07:31:35;;;;;;;4.82;0.90;;;23.20;95.00;;;;;;7357120;32;20122;-64
2022/07/17 07:35:37;;;;;;;4.45;1.20;;;22.80;93.90;;;;;;7357809;32;20159;-63
2022/07/17 07:39:39;;;;;;;5.78;1.17;;;22.90;93.30;;;;;;7356373;32;20598;-63
2022/07/17 07:43:41;;;;;;;3.75;0.73;;;23.00;93.90;;;;;;7357100;32;20329;-63
2022/07/17 07:47:51;;;;;;;3.67;0.70;;;22.80;93.90;;;;;;7356428;32;20114;-63
2022/07/17 07:51:53;;;;;;;3.08;0.70;;;22.50;95.90;;;;;;7357544;32;20168;-63
2022/07/17 07:56:04;;;;;;;4.78;0.90;;;22.20;97.40;;;;;;7355065;32;20734;-63
2022/07/17 08:00:08;;;;;;;5.37;1.00;;;21.80;95.70;;;;;;7349312;32;20137;-62
2022/07/17 08:04:10;;;;;;;4.32;0.93;;;21.50;95.90;;;;;;7362267;32;20535;-63
2022/07/17 08:08:11;;;;;;;3.47;0.80;;;21.20;95.40;;;;;;7361347;32;20123;-62
2022/07/17 08:12:13;;;;;;;3.03;0.75;;;21.10;96.10;;;;;;7362514;32;20129;-63
2022/07/17 08:16:35;;;;;;;2.97;0.70;;;21.20;95.80;;;;;;7362182;32;20249;-62
2022/07/17 08:20:37;;;;;;;4.22;0.85;;;21.60;96.50;;;;;;7360788;32;20558;-64
2022/07/17 08:24:39;;;;;;;3.28;0.60;;;22.10;95.10;;;;;;7362347;32;20119;-64
2022/07/17 08:28:40;;;;;;;6.15;0.93;;;22.60;93.60;;;;;;7360434;32;20549;-63
2022/07/17 08:32:43;;;;;;;2.75;0.65;;;23.20;92.50;;;;;;7361473;32;20104;-63
2022/07/17 08:36:44;;;;;;;3.92;0.80;;;23.40;90.40;;;;;;7361266;32;20487;-63
2022/07/17 08:40:49;;;;;;;3.85;0.98;;;24.10;89.20;;;;;;7360428;32;20340;-63
2022/07/17 08:44:51;;;;;;;4.85;0.80;;;24.30;82.80;;;;;;7360973;32;20131;-63
2022/07/17 08:48:58;;;;;;;4.10;1.05;;;24.60;84.80;;;;;;7359858;32;20156;-64
2022/07/17 08:53:00;;;;;;;;;;;25.20;82.90;;;;;;7361395;32;20281;-64
2022/07/17 08:57:03;;;;;;;2.90;1.00;;;25.40;79.60;;;;;;7343303;32;20032;-65
2022/07/17 09:01:08;;;;;;;6.78;1.30;;;26.00;76.90;;;;;;7359201;32;20186;-64
2022/07/17 09:05:10;;;;;;;3.65;0.90;;;26.40;76.80;;;;;;7360797;32;20213;-64
2022/07/17 09:09:13;;;;;;;4.70;1.05;;;26.90;76.80;;;;;;7359625;32;20586;-64
2022/07/17 09:13:18;;;;;;;7.72;1.12;;;27.20;77.10;;;;;;7359468;32;20099;-64
2022/07/17 09:17:20;;;;;;;5.55;1.30;;;27.60;73.10;;;;;;7360409;32;20206;-65
2022/07/17 09:21:25;;;;;;;5.47;1.00;;;28.30;72.70;;;;;;7359557;32;20115;-64
2022/07/17 09:25:40;;;;;;;5.25;1.00;;;27.90;68.70;;;;;;7360540;32;20100;-64
2022/07/17 09:30:15;;;;;;;5.40;1.02;;;27.30;71.50;;;;;;7359160;32;20107;-64
2022/07/17 09:34:17;;;;;;;4.78;1.35;;;27.60;67.40;;;;;;7359995;32;20167;-64
2022/07/17 09:38:45;;;;;;;5.10;1.12;;;28.00;65.10;;;;;;7358553;32;20760;-64
2022/07/17 09:43:08;;;;;;;5.05;1.37;;;28.40;64.90;;;;;;7358228;32;20531;-65
2022/07/17 09:47:11;;;;;;;7.22;1.23;;;26.60;68.40;;;;;;7360111;32;20289;-64
2022/07/17 09:51:16;;;;;;;4.10;1.10;;;27.20;70.40;;;;;;7358428;32;20103;-64
2022/07/17 09:55:20;;;;;;;4.22;1.42;;;27.50;66.50;;;;;;7359505;32;20217;-64
2022/07/17 09:59:43;;;;;;;2.95;1.02;;;28.00;65.40;;;;;;7344977;32;20100;-64
2022/07/17 10:03:48;;;;;;;6.93;1.10;;;28.00;64.30;;;;;;7359037;32;20213;-64
2022/07/17 10:07:50;;;;;;;5.20;1.10;;;27.70;64.10;;;;;;7358162;32;20225;-64
2022/07/17 10:11:53;;;;;;;9.00;1.65;;;28.20;61.60;;;;;;7358883;32;20111;-64
2022/07/17 10:15:54;;;;;;;5.25;1.20;;;27.70;61.80;;;;;;7359404;32;20099;-64
2022/07/17 10:19:57;;;;;;;6.78;1.37;;;28.30;62.90;;;;;;7358076;32;20107;-65
2022/07/17 10:23:59;;;;;;;7.30;1.20;;;28.20;62.30;;;;;;7358418;32;20103;-64
2022/07/17 10:28:00;;;;;;;6.68;1.55;;;28.20;63.00;;;;;;7357418;32;20205;-64
2022/07/17 10:32:14;;;;;;;6.55;1.40;;;28.40;60.30;;;;;;7359393;32;20250;-64
2022/07/17 10:36:16;;;;;;;9.13;1.45;;;27.60;59.50;;;;;;7358299;32;20119;-64
2022/07/17 10:40:23;;;;;;;5.87;1.52;;;27.80;62.20;;;;;;7356803;32;20432;-64
2022/07/17 10:44:29;;;;;;;4.47;1.65;;;28.00;62.20;;;;;;7358109;32;20181;-64
2022/07/17 10:48:31;;;;;;;6.12;1.55;;;27.70;60.40;;;;;;7357285;32;20111;-64
2022/07/17 10:52:33;;;;;;;8.00;1.35;;;27.30;58.90;;;;;;7357704;32;20133;-64
2022/07/17 10:56:35;;;;;;;5.35;1.17;;;27.60;59.70;;;;;;7340113;32;20104;-64
2022/07/17 11:00:37;;;;;;;4.60;1.67;;;27.70;60.30;;;;;;7356833;32;20099;-64
2022/07/17 11:04:39;;;;;;;7.35;2.10;;;27.00;57.30;;;;;;7357718;32;20107;-64
2022/07/17 11:09:02;;;;;;;6.32;2.12;;;27.10;60.40;;;;;;7357170;32;20100;-64
2022/07/17 11:13:12;;;;;;;8.13;2.30;;;27.00;62.00;;;;;;7357795;32;20802;-64
2022/07/17 11:17:19;;;;;;;7.85;2.55;;;26.30;62.10;;;;;;7358145;32;20284;-64
2022/07/17 11:21:20;;;;;;;9.57;2.80;;;26.30;62.90;;;;;;7356543;32;20647;-64
2022/07/17 11:25:24;;;;;;;10.68;3.03;;;26.40;64.00;;;;;;7357711;32;20118;-64
2022/07/17 11:29:25;;;;;;;9.45;2.55;;;25.60;62.80;;;;;;7356101;32;20812;-64
2022/07/17 11:33:27;;;;;;;12.48;2.30;;;25.60;64.00;;;;;;7357722;32;20108;-64
2022/07/17 11:37:44;;;;;;;11.10;2.62;;;26.10;62.60;;;;;;7362343;32;20115;-65
2022/07/17 11:41:50;;;;;;;;;;;26.20;62.80;;;;;;7337199;32;20305;-64
2022/07/17 11:45:52;;;;;;;7.80;2.37;;;25.90;62.90;;;;;;7336742;32;20023;-64
2022/07/17 11:50:05;;;;;;;9.50;2.40;;;25.60;62.00;;;;;;7351910;32;20126;-64
2022/07/17 11:54:11;;;;;;;8.25;2.33;;;25.40;62.10;;;;;;7362729;32;20155;-64
2022/07/17 11:58:13;;;;;;;8.30;2.20;;;26.10;61.20;;;;;;7350176;32;20107;-64
2022/07/17 12:02:17;;;;;;;7.50;2.20;;;26.40;61.90;;;;;;7362563;32;20500;-63
2022/07/17 12:06:26;;;;;;;7.97;2.10;;;26.70;59.80;;;;;;7362676;32;20163;-64
2022/07/17 12:10:31;;;;;;;7.53;2.05;;;26.50;59.20;;;;;;7360555;32;20421;-64
2022/07/17 12:14:32;;;;;;;8.40;2.30;;;26.30;59.10;;;;;;7361599;32;20159;-65
2022/07/17 12:18:36;;;;;;;8.80;2.12;;;26.30;61.40;;;;;;7360976;32;20252;-64
2022/07/17 12:22:46;;;;;;;7.15;1.90;;;26.10;57.80;;;;;;7362111;32;20118;-64
2022/07/17 12:26:48;;;;;;;10.35;2.42;;;26.20;59.70;;;;;;7360873;32;20107;-63
2022/07/17 12:30:50;;;;;;;7.87;2.50;;;25.90;57.80;;;;;;7360108;32;20185;-64
2022/07/17 12:34:52;;;;;;;7.90;2.00;;;25.60;58.90;;;;;;7361608;32;20463;-64
2022/07/17 12:39:02;;;;;;;5.93;1.77;;;25.90;59.30;;;;;;7360437;32;20121;-64
2022/07/17 12:43:03;;;;;;;7.87;2.08;;;26.30;57.30;;;;;;7361195;32;20115;-64
2022/07/17 12:47:05;;;;;;;4.87;1.70;;;26.50;60.10;;;;;;7360834;32;20605;-64
2022/07/17 12:51:08;;;;;;;4.85;1.58;;;26.80;56.50;;;;;;7359590;32;20225;-64
2022/07/17 12:55:11;;;;;;;5.50;1.90;;;26.60;54.90;;;;;;7347628;32;20123;-65
2022/07/17 12:59:13;;;;;;;6.65;1.87;;;26.60;56.00;;;;;;7356048;32;20771;-64
2022/07/17 13:03:15;;;;;;;8.05;1.70;;;26.80;57.30;;;;;;7360377;32;20184;-64
2022/07/17 13:07:17;;;;;;;7.37;1.90;;;26.50;56.40;;;;;;7360583;32;20698;-63
2022/07/17 13:11:19;;;;;;;7.28;2.00;;;26.30;57.00;;;;;;7358318;32;20118;-64
2022/07/17 13:15:21;;;;;;;6.45;2.17;;;26.10;58.70;;;;;;7360315;32;20588;-64
2022/07/17 13:19:29;;;;;;;7.72;1.95;;;25.90;58.60;;;;;;7359443;32;20126;-64
2022/07/17 13:23:30;;;;;;;7.03;2.10;;;26.20;60.70;;;;;;7360255;32;20182;-63
2022/07/17 13:27:32;;;;;;;8.27;2.10;;;26.80;57.70;;;;;;7359823;32;20123;-64
2022/07/17 13:31:34;;;;;;;5.00;1.80;;;27.00;55.40;;;;;;7359430;32;20103;-64
2022/07/17 13:35:36;;;;;;;7.37;1.70;;;27.30;56.50;;;;;;7359428;32;20107;-64
2022/07/17 13:39:38;;;;;;;4.85;1.90;;;27.60;54.30;;;;;;7357894;32;20104;-63
2022/07/17 13:43:40;;;;;;;9.25;2.03;;;27.60;56.90;;;;;;7359297;32;20202;-63
2022/07/17 13:47:41;;;;;;;9.30;1.87;;;28.00;55.40;;;;;;7358546;32;20171;-63
2022/07/17 13:51:43;;;;;;;7.95;1.98;;;28.30;55.20;;;;;;7359369;32;20126;-64
2022/07/17 13:55:45;;;;;;;6.53;1.80;;;28.50;54.90;;;;;;7358888;32;20631;-64
2022/07/17 13:59:54;;;;;;;7.62;1.95;;;28.90;52.70;;;;;;7340452;32;20185;-64
2022/07/17 14:03:56;;;;;;;7.47;2.10;;;27.60;52.40;;;;;;7358971;32;20160;-64
2022/07/17 14:07:57;;;;;;;5.80;1.85;;;27.90;52.60;;;;;;7358773;32;20504;-65
2022/07/17 14:12:00;;;;;;;6.87;1.60;;;26.90;51.20;;;;;;7358664;32;20152;-64
2022/07/17 14:16:02;;;;;;;3.85;1.20;;;27.70;50.80;;;;;;7358885;32;20828;-64
2022/07/17 14:20:04;;;;;;;8.27;1.60;;;28.00;50.40;;;;;;7357391;32;20194;-64
2022/07/17 14:24:07;;;;;;;5.70;1.58;;;28.20;52.50;;;;;;7358789;32;20112;-65
2022/07/17 14:28:10;;;;;;;7.37;1.30;;;28.80;50.80;;;;;;7358569;32;20152;-64
2022/07/17 14:32:12;;;;;;;5.22;1.67;;;29.40;49.00;;;;;;7358079;32;20585;-64
2022/07/17 14:36:14;;;;;;;9.63;1.80;;;29.90;48.70;;;;;;7358380;32;20434;-65
2022/07/17 14:40:16;;;;;;;4.60;1.23;;;30.70;48.70;;;;;;7357373;32;20103;-63
2022/07/17 14:44:18;;;;;;;3.53;1.20;;;30.70;46.80;;;;;;7357733;32;20183;-65
2022/07/17 14:48:19;;;;;;;6.57;1.45;;;30.80;45.70;;;;;;7357202;32;20513;-63
2022/07/17 14:52:21;;;;;;;5.12;1.30;;;30.40;46.40;;;;;;7357941;32;20166;-64
2022/07/17 14:56:24;;;;;;;3.83;1.27;;;29.70;45.00;;;;;;7340995;32;20521;-64
2022/07/17 15:00:26;;;;;;;4.93;1.48;;;29.60;47.40;;;;;;7357578;32;20509;-64
2022/07/17 15:04:28;;;;;;;5.75;1.20;;;28.10;47.60;;;;;;7357684;32;20102;-64
2022/07/17 15:08:30;;;;;;;6.60;1.10;;;26.90;49.00;;;;;;7356901;32;20539;-64
2022/07/17 15:12:32;;;;;;;4.68;1.42;;;26.70;50.10;;;;;;7357670;32;20111;-65
2022/07/17 15:16:33;;;;;;;6.20;1.50;;;26.90;51.20;;;;;;7357615;32;20455;-64
2022/07/17 15:20:36;;;;;;;3.50;1.30;;;26.50;50.10;;;;;;7356587;32;20202;-64
2022/07/17 15:24:44;;;;;;;5.32;1.20;;;26.50;52.00;;;;;;7357945;32;20149;-64
2022/07/17 15:28:46;;;;;;;4.95;1.30;;;26.20;51.30;;;;;;7356622;32;20161;-64
2022/07/17 15:32:48;;;;;;;5.72;1.10;;;26.20;52.10;;;;;;7357579;32;20504;-64
2022/07/17 15:36:49;;;;;;;6.40;1.30;;;26.30;52.00;;;;;;7357773;32;20160;-64
2022/07/17 15:40:51;;;;;;;4.55;1.00;;;26.30;52.30;;;;;;7356416;32;20695;-64
2022/07/17 15:44:53;;;;;;;3.45;1.45;;;26.50;51.90;;;;;;7357161;32;20207;-64
2022/07/17 15:49:01;;;;;;;3.30;1.30;;;25.60;52.30;;;;;;7356445;32;20099;-64
2022/07/17 15:53:02;;;;;;;6.28;1.30;;;25.90;54.10;;;;;;7356714;32;20186;-64
2022/07/17 15:57:04;;;;;;;3.22;1.27;;;26.10;53.20;;;;;;7340166;32;20100;-64
2022/07/17 16:01:06;;;;;;;5.18;1.17;;;26.20;53.10;;;;;;7356518;32;20126;-64
2022/07/17 16:05:08;;;;;;;3.90;1.33;;;26.30;52.90;;;;;;7357228;32;20107;-64
2022/07/17 16:09:12;;;;;;;4.35;1.27;;;26.20;52.00;;;;;;7356335;32;20103;-64
2022/07/17 16:13:14;;;;;;;4.72;1.23;;;26.20;52.70;;;;;;7357451;32;20729;-64
2022/07/17 16:17:16;;;;;;;2.83;1.00;;;26.40;51.30;;;;;;7357326;32;20152;-64
2022/07/17 16:21:18;;;;;;;4.07;1.42;;;26.30;51.90;;;;;;7357623;32;20100;-63
2022/07/17 16:25:20;;;;;;;3.92;1.35;;;26.40;52.40;;;;;;7361374;32;20225;-63
2022/07/17 16:29:22;;;;;;;2.55;1.35;;;26.40;52.60;;;;;;7360563;32;20673;-64
2022/07/17 16:33:24;;;;;;;4.53;1.50;;;26.00;52.10;;;;;;7361713;32;20187;-63
2022/07/17 16:37:26;;;;;;;3.28;1.30;;;25.90;52.00;;;;;;7361132;32;20125;-64
2022/07/17 16:41:27;;;;;;;4.57;1.60;;;25.80;52.80;;;;;;7360394;32;20140;-64
2022/07/17 16:45:29;;;;;;;4.22;1.60;;;25.70;52.50;;;;;;7361479;32;20103;-64
2022/07/17 16:49:31;;;;;;;4.32;1.58;;;25.40;52.10;;;;;;7360000;32;20518;-64
2022/07/17 16:53:32;;;;;;;6.05;1.90;;;25.50;52.60;;;;;;7360493;32;20218;-64
2022/07/17 16:57:35;;;;;;;3.95;1.70;;;25.40;52.80;;;;;;7347472;32;20582;-64
2022/07/17 17:01:37;;;;;;;4.10;1.62;;;25.40;51.50;;;;;;7352332;32;20140;-65
2022/07/17 17:05:39;;;;;;;5.32;1.70;;;25.40;51.40;;;;;;7360643;32;20095;-64
2022/07/17 17:09:41;;;;;;;3.30;1.40;;;25.30;53.20;;;;;;7359258;32;20115;-64
2022/07/17 17:13:44;;;;;;;6.22;1.77;;;25.20;52.50;;;;;;7360455;32;20140;-64
2022/07/17 17:17:46;;;;;;;3.90;1.55;;;25.00;52.10;;;;;;7359508;32;20505;-63
2022/07/17 17:21:48;;;;;;;4.30;1.40;;;25.00;52.50;;;;;;7360264;32;20143;-63
2022/07/17 17:25:50;;;;;;;3.87;1.30;;;24.90;50.50;;;;;;7360601;32;20123;-64
2022/07/17 17:29:52;;;;;;;5.53;1.73;;;24.80;51.30;;;;;;7359532;32;20115;-64
2022/07/17 17:33:53;;;;;;;3.92;1.40;;;24.60;52.20;;;;;;7359599;32;20117;-64
2022/07/17 17:37:55;;;;;;;4.32;1.55;;;24.60;53.60;;;;;;7358615;32;20917;-64
2022/07/17 17:41:57;;;;;;;3.28;1.45;;;24.50;52.70;;;;;;7359701;32;20130;-63
2022/07/17 17:45:59;;;;;;;3.70;1.48;;;24.60;53.40;;;;;;7360190;32;20162;-64
2022/07/17 17:50:01;;;;;;;3.35;1.30;;;24.40;54.40;;;;;;7358855;32;20126;-64
2022/07/17 17:54:03;;;;;;;6.00;1.52;;;24.40;55.30;;;;;;7353015;32;20261;-64
2022/07/17 17:58:05;;;;;;;2.12;1.05;;;24.30;55.80;;;;;;7335637;32;20103;-64
2022/07/17 18:02:07;;;;;;;3.03;1.20;;;24.40;55.70;;;;;;7334144;32;20176;-64
2022/07/17 18:06:10;;;;;;;3.97;1.00;;;24.60;56.00;;;;;;7338689;32;20087;-63
2022/07/17 18:10:12;;;;;;;4.72;1.20;;;24.60;57.00;;;;;;7358401;32;20190;-63
2022/07/17 18:14:13;;;;;;;4.10;1.50;;;24.60;58.30;;;;;;7358985;32;20651;-64
2022/07/17 18:18:15;;;;;;;1.95;1.20;;;24.50;59.20;;;;;;7357831;32;20190;-64
2022/07/17 18:22:17;;;;;;;3.00;1.05;;;24.40;61.20;;;;;;7359028;32;20127;-65
2022/07/17 18:26:19;;;;;;;2.95;1.17;;;24.20;66.80;;;;;;7359333;32;20103;-66
2022/07/17 18:30:21;;;;;;;4.50;1.30;;;24.00;67.10;;;;;;7358547;32;20127;-64
2022/07/17 18:34:22;;;;;;;2.75;1.05;;;23.90;66.60;;;;;;7359114;32;20478;-65
2022/07/17 18:38:24;;;;;;;4.70;1.40;;;23.80;68.40;;;;;;7357780;32;20123;-65
2022/07/17 18:42:26;;;;;;;6.80;1.77;;;23.60;75.50;;;;;;7359080;32;20106;-65
2022/07/17 18:46:28;;;;;;;3.95;1.48;;;23.40;79.80;;;;;;7358780;32;20131;-65
2022/07/17 18:50:30;;;;;;;2.62;0.93;;;23.10;83.90;;;;;;7358702;32;20102;-64
2022/07/17 18:54:33;;;;;;;4.10;1.50;;;22.80;85.50;;;;;;7349662;32;20172;-66
2022/07/17 18:58:35;;;;;;;4.45;1.55;;;22.70;88.80;;;;;;7334366;32;20152;-64
2022/07/17 19:02:36;;;;;;;3.53;1.80;;;22.50;91.70;;;;;;7333477;32;20553;-65
2022/07/17 19:06:38;;;;;;;9.00;1.92;;;22.20;95.30;;;;;;7340331;32;20103;-65
2022/07/17 19:10:40;;;;;;;3.80;1.20;;;22.00;98.70;;;;;;7358089;32;20822;-65
2022/07/17 19:14:43;;;;;;;3.90;1.40;;;21.70;99.90;;;;;;7358162;32;20178;-65
2022/07/17 19:18:45;;;;;;;5.20;1.20;;;21.40;99.90;;;;;;7357690;32;20159;-65
2022/07/17 19:22:47;;;;;;;5.25;1.37;;;21.10;99.90;;;;;;7358726;32;20103;-65
2022/07/17 19:26:49;;;;;;;8.43;1.80;;;20.90;99.90;;;;;;7357819;32;20092;-64
2022/07/17 19:30:52;;;;;;;3.03;1.10;;;20.70;99.90;;;;;;7356882;32;20618;-65
2022/07/17 19:34:53;;;;;;;4.35;1.58;;;20.50;99.90;;;;;;7358522;32;20128;-64
2022/07/17 19:38:55;;;;;;;4.80;1.87;;;20.30;99.90;;;;;;7356885;32;20134;-64
2022/07/17 19:42:57;;;;;;;3.78;1.25;;;20.00;99.90;;;;;;7357441;32;20130;-64
2022/07/17 19:46:58;;;;;;;8.05;1.40;;;19.70;99.90;;;;;;7358429;32;20440;-66
2022/07/17 19:51:00;;;;;;;3.37;1.20;;;19.50;99.90;;;;;;7358168;32;20493;-64
2022/07/17 19:55:03;;;;;;;5.50;1.73;;;19.30;99.90;;;;;;7347277;32;20215;-63
2022/07/17 19:59:08;;;;;;;10.27;1.60;;;19.10;99.90;;;;;;7337841;32;20191;-63
2022/07/17 20:03:10;;;;;;;6.65;1.65;;;18.90;99.90;;;;;;7346529;32;20126;-63
2022/07/17 20:07:11;;;;;;;11.23;1.92;;;18.70;99.90;;;;;;7363361;32;20103;-63
2022/07/17 20:11:13;;;;;;;4.93;1.52;;;18.50;99.90;;;;;;7362688;32;20276;-62
2022/07/17 20:15:15;;;;;;;5.12;1.50;;;18.30;99.90;;;;;;7363066;32;20099;-63
2022/07/17 20:19:16;;;;;;;8.23;1.58;;;18.20;99.90;;;;;;7361785;32;20130;-62
2022/07/17 20:23:18;;;;;;;7.57;1.80;;;18.00;99.90;;;;;;7363104;32;20168;-62
2022/07/17 20:27:20;;;;;;;6.68;1.50;;;17.90;99.90;;;;;;7362842;32;20115;-62
2022/07/17 20:31:22;;;;;;;7.25;1.52;;;17.70;99.90;;;;;;7361252;32;20164;-63
2022/07/17 20:35:24;;;;;;;6.10;1.50;;;17.60;99.90;;;;;;7362597;32;20108;-63
2022/07/17 20:39:26;;;;;;;8.18;1.70;;;17.50;99.90;;;;;;7361427;32;20107;-63
2022/07/17 20:43:29;;;;;;;8.07;1.60;;;17.30;99.90;;;;;;7362511;32;20190;-62
2022/07/17 20:47:31;;;;;;;7.72;1.33;;;17.20;99.90;;;;;;7361227;32;20185;-62
2022/07/17 20:51:32;;;;;;;4.75;1.77;;;17.20;99.90;;;;;;7362181;32;20118;-61
2022/07/17 20:55:37;;;;;;;6.82;1.92;;;17.20;99.90;;;;;;7346650;32;20928;-62
2022/07/17 20:59:39;;;;;;;6.62;1.50;;;17.20;99.90;;;;;;7359887;32;20190;-62
2022/07/17 21:03:41;;;;;;;8.30;1.77;;;17.10;99.90;;;;;;7361927;32;20106;-62
2022/07/17 21:07:42;;;;;;;6.55;1.73;;;17.20;99.90;;;;;;7361022;32;20100;-63